sensor_id;sensor_type;location;lat;lon;timestamp;P1;durP1;ratioP1;P2;durP2;ratioP2
62790;SDS011;48830;53.426;10.300;2022-08-25T00:02:05;6.25;;;4.07;;
62790;SDS011;48830;53.426;10.300;2022-08-25T00:04:33;9.02;;;4.85;;
62790;SDS011;48830;53.426;10.300;2022-08-25T00:07:00;7.22;;;4.38;;
62790;SDS011;48830;53.426;10.300;2022-08-25T00:09:26;6.90;;;4.30;;
62790;SDS011;48830;53.426;10.300;2022-08-25T00:11:52;7.53;;;4.45;;
62790;SDS011;48830;53.426;10.300;2022-08-25T00:14:20;7.43;;;4.60;;
62790;SDS011;48830;53.426;10.300;2022-08-25T00:16:48;8.35;;;4.30;;
62790;SDS011;48830;53.426;10.300;2022-08-25T00:19:15;7.63;;;4.35;;
62790;SDS011;48830;53.426;10.300;2022-08-25T00:21:44;9.52;;;4.28;;
62790;SDS011;48830;53.426;10.300;2022-08-25T00:24:10;10.18;;;4.68;;
62790;SDS011;48830;53.426;10.300;2022-08-25T00:26:38;7.97;;;4.40;;
62790;SDS011;48830;53.426;10.300;2022-08-25T00:29:06;9.02;;;4.68;;
62790;SDS011;48830;53.426;10.300;2022-08-25T00:31:33;7.32;;;4.47;;
62790;SDS011;48830;53.426;10.300;2022-08-25T00:33:59;8.18;;;4.63;;
62790;SDS011;48830;53.426;10.300;2022-08-25T00:36:25;7.93;;;4.43;;
62790;SDS011;48830;53.426;10.300;2022-08-25T00:38:52;11.43;;;4.47;;
62790;SDS011;48830;53.426;10.300;2022-08-25T00:41:20;9.32;;;4.32;;
62790;SDS011;48830;53.426;10.300;2022-08-25T00:43:49;6.68;;;4.50;;
62790;SDS011;48830;53.426;10.300;2022-08-25T00:46:25;8.90;;;4.50;;
62790;SDS011;48830;53.426;10.300;2022-08-25T00:48:55;8.95;;;4.70;;
62790;SDS011;48830;53.426;10.300;2022-08-25T00:51:32;12.00;;;5.22;;
62790;SDS011;48830;53.426;10.300;2022-08-25T00:54:04;10.70;;;5.03;;
62790;SDS011;48830;53.426;10.300;2022-08-25T00:56:32;7.95;;;4.95;;
62790;SDS011;48830;53.426;10.300;2022-08-25T00:58:59;8.30;;;4.78;;
62790;SDS011;48830;53.426;10.300;2022-08-25T01:01:26;6.70;;;4.18;;
62790;SDS011;48830;53.426;10.300;2022-08-25T01:03:52;9.43;;;5.13;;
62790;SDS011;48830;53.426;10.300;2022-08-25T01:06:18;10.63;;;5.18;;
62790;SDS011;48830;53.426;10.300;2022-08-25T01:08:44;6.75;;;4.70;;
62790;SDS011;48830;53.426;10.300;2022-08-25T01:11:10;8.00;;;4.85;;
62790;SDS011;48830;53.426;10.300;2022-08-25T01:13:38;8.77;;;4.65;;
62790;SDS011;48830;53.426;10.300;2022-08-25T01:16:08;7.80;;;4.88;;
62790;SDS011;48830;53.426;10.300;2022-08-25T01:18:43;7.95;;;4.88;;
62790;SDS011;48830;53.426;10.300;2022-08-25T01:21:08;9.63;;;4.72;;
62790;SDS011;48830;53.426;10.300;2022-08-25T01:23:34;7.80;;;4.82;;
62790;SDS011;48830;53.426;10.300;2022-08-25T01:26:01;8.35;;;4.75;;
62790;SDS011;48830;53.426;10.300;2022-08-25T01:28:36;8.93;;;4.70;;
62790;SDS011;48830;53.426;10.300;2022-08-25T01:31:02;7.00;;;4.68;;
62790;SDS011;48830;53.426;10.300;2022-08-25T01:33:29;9.00;;;4.90;;
62790;SDS011;48830;53.426;10.300;2022-08-25T01:35:55;7.78;;;4.25;;
62790;SDS011;48830;53.426;10.300;2022-08-25T01:38:20;11.38;;;5.25;;
62790;SDS011;48830;53.426;10.300;2022-08-25T01:40:46;8.10;;;4.60;;
62790;SDS011;48830;53.426;10.300;2022-08-25T01:43:16;7.45;;;5.00;;
62790;SDS011;48830;53.426;10.300;2022-08-25T01:45:50;10.35;;;5.10;;
62790;SDS011;48830;53.426;10.300;2022-08-25T01:48:17;8.55;;;5.40;;
62790;SDS011;48830;53.426;10.300;2022-08-25T01:50:43;8.10;;;4.97;;
62790;SDS011;48830;53.426;10.300;2022-08-25T01:53:21;7.20;;;4.53;;
62790;SDS011;48830;53.426;10.300;2022-08-25T01:55:50;9.27;;;5.20;;
62790;SDS011;48830;53.426;10.300;2022-08-25T01:58:24;8.18;;;4.65;;
62790;SDS011;48830;53.426;10.300;2022-08-25T02:00:53;7.18;;;4.47;;
62790;SDS011;48830;53.426;10.300;2022-08-25T02:03:21;12.98;;;5.15;;
62790;SDS011;48830;53.426;10.300;2022-08-25T02:05:47;8.05;;;5.28;;
62790;SDS011;48830;53.426;10.300;2022-08-25T02:08:12;8.30;;;4.97;;
62790;SDS011;48830;53.426;10.300;2022-08-25T02:10:38;8.82;;;5.05;;
62790;SDS011;48830;53.426;10.300;2022-08-25T02:13:05;8.80;;;5.25;;
62790;SDS011;48830;53.426;10.300;2022-08-25T02:15:31;9.30;;;5.10;;
62790;SDS011;48830;53.426;10.300;2022-08-25T02:17:57;8.60;;;4.82;;
62790;SDS011;48830;53.426;10.300;2022-08-25T02:20:23;9.00;;;5.20;;
62790;SDS011;48830;53.426;10.300;2022-08-25T02:22:50;8.82;;;5.05;;
62790;SDS011;48830;53.426;10.300;2022-08-25T02:25:16;8.52;;;4.70;;
62790;SDS011;48830;53.426;10.300;2022-08-25T02:27:43;10.85;;;5.32;;
62790;SDS011;48830;53.426;10.300;2022-08-25T02:30:10;9.65;;;4.82;;
62790;SDS011;48830;53.426;10.300;2022-08-25T02:32:37;6.47;;;4.82;;
62790;SDS011;48830;53.426;10.300;2022-08-25T02:35:03;9.93;;;5.57;;
62790;SDS011;48830;53.426;10.300;2022-08-25T02:37:30;8.30;;;4.93;;
62790;SDS011;48830;53.426;10.300;2022-08-25T02:39:56;10.65;;;4.95;;
62790;SDS011;48830;53.426;10.300;2022-08-25T02:42:21;7.28;;;4.82;;
62790;SDS011;48830;53.426;10.300;2022-08-25T02:44:48;7.57;;;4.97;;
62790;SDS011;48830;53.426;10.300;2022-08-25T02:47:14;10.75;;;5.10;;
62790;SDS011;48830;53.426;10.300;2022-08-25T02:49:40;7.72;;;5.05;;
62790;SDS011;48830;53.426;10.300;2022-08-25T02:52:05;8.25;;;4.82;;
62790;SDS011;48830;53.426;10.300;2022-08-25T02:54:31;7.78;;;4.53;;
62790;SDS011;48830;53.426;10.300;2022-08-25T02:56:56;8.38;;;4.75;;
62790;SDS011;48830;53.426;10.300;2022-08-25T02:59:22;8.75;;;5.03;;
62790;SDS011;48830;53.426;10.300;2022-08-25T03:01:47;10.75;;;5.10;;
62790;SDS011;48830;53.426;10.300;2022-08-25T03:04:13;9.13;;;5.13;;
62790;SDS011;48830;53.426;10.300;2022-08-25T03:06:38;9.02;;;5.28;;
62790;SDS011;48830;53.426;10.300;2022-08-25T03:09:05;8.93;;;5.40;;
62790;SDS011;48830;53.426;10.300;2022-08-25T03:11:30;9.00;;;5.15;;
62790;SDS011;48830;53.426;10.300;2022-08-25T03:13:56;9.00;;;5.03;;
62790;SDS011;48830;53.426;10.300;2022-08-25T03:16:21;8.52;;;4.88;;
62790;SDS011;48830;53.426;10.300;2022-08-25T03:18:47;7.07;;;4.82;;
62790;SDS011;48830;53.426;10.300;2022-08-25T03:21:13;8.20;;;5.20;;
62790;SDS011;48830;53.426;10.300;2022-08-25T03:23:39;8.82;;;5.15;;
62790;SDS011;48830;53.426;10.300;2022-08-25T03:26:06;9.35;;;5.18;;
62790;SDS011;48830;53.426;10.300;2022-08-25T03:28:52;8.18;;;4.93;;
62790;SDS011;48830;53.426;10.300;2022-08-25T03:31:21;8.82;;;5.30;;
62790;SDS011;48830;53.426;10.300;2022-08-25T03:33:48;8.27;;;4.97;;
62790;SDS011;48830;53.426;10.300;2022-08-25T03:36:13;8.70;;;5.45;;
62790;SDS011;48830;53.426;10.300;2022-08-25T03:38:39;9.75;;;5.65;;
62790;SDS011;48830;53.426;10.300;2022-08-25T03:41:16;9.57;;;5.47;;
62790;SDS011;48830;53.426;10.300;2022-08-25T03:43:45;8.15;;;5.43;;
62790;SDS011;48830;53.426;10.300;2022-08-25T03:46:21;8.20;;;5.13;;
62790;SDS011;48830;53.426;10.300;2022-08-25T03:48:48;7.70;;;5.00;;
62790;SDS011;48830;53.426;10.300;2022-08-25T03:51:18;9.30;;;4.60;;
62790;SDS011;48830;53.426;10.300;2022-08-25T03:53:50;8.55;;;5.22;;
62790;SDS011;48830;53.426;10.300;2022-08-25T03:56:16;8.75;;;5.15;;
62790;SDS011;48830;53.426;10.300;2022-08-25T03:58:42;9.57;;;5.43;;
62790;SDS011;48830;53.426;10.300;2022-08-25T04:01:08;9.32;;;5.30;;
62790;SDS011;48830;53.426;10.300;2022-08-25T04:03:34;8.13;;;5.68;;
62790;SDS011;48830;53.426;10.300;2022-08-25T04:06:00;10.90;;;6.05;;
62790;SDS011;48830;53.426;10.300;2022-08-25T04:08:27;8.40;;;5.38;;
62790;SDS011;48830;53.426;10.300;2022-08-25T04:10:53;8.13;;;5.43;;
62790;SDS011;48830;53.426;10.300;2022-08-25T04:13:19;9.15;;;5.60;;
62790;SDS011;48830;53.426;10.300;2022-08-25T04:15:45;9.25;;;6.22;;
62790;SDS011;48830;53.426;10.300;2022-08-25T04:18:10;12.25;;;6.38;;
62790;SDS011;48830;53.426;10.300;2022-08-25T04:20:37;10.23;;;5.78;;
62790;SDS011;48830;53.426;10.300;2022-08-25T04:23:04;9.00;;;5.75;;
62790;SDS011;48830;53.426;10.300;2022-08-25T04:25:30;10.48;;;6.03;;
62790;SDS011;48830;53.426;10.300;2022-08-25T04:27:55;9.52;;;5.75;;
62790;SDS011;48830;53.426;10.300;2022-08-25T04:30:21;12.35;;;5.50;;
62790;SDS011;48830;53.426;10.300;2022-08-25T04:32:47;8.60;;;5.82;;
62790;SDS011;48830;53.426;10.300;2022-08-25T04:35:14;8.88;;;6.05;;
62790;SDS011;48830;53.426;10.300;2022-08-25T04:37:40;11.63;;;6.20;;
62790;SDS011;48830;53.426;10.300;2022-08-25T04:40:06;9.75;;;6.10;;
62790;SDS011;48830;53.426;10.300;2022-08-25T04:42:33;9.00;;;6.25;;
62790;SDS011;48830;53.426;10.300;2022-08-25T04:44:59;8.93;;;5.75;;
62790;SDS011;48830;53.426;10.300;2022-08-25T04:47:26;8.75;;;6.03;;
62790;SDS011;48830;53.426;10.300;2022-08-25T04:49:52;11.23;;;7.30;;
62790;SDS011;48830;53.426;10.300;2022-08-25T04:52:18;11.68;;;6.78;;
62790;SDS011;48830;53.426;10.300;2022-08-25T04:54:44;9.80;;;7.13;;
62790;SDS011;48830;53.426;10.300;2022-08-25T04:57:10;9.90;;;7.38;;
62790;SDS011;48830;53.426;10.300;2022-08-25T04:59:36;16.00;;;8.73;;
62790;SDS011;48830;53.426;10.300;2022-08-25T05:02:01;14.27;;;9.40;;
62790;SDS011;48830;53.426;10.300;2022-08-25T05:04:29;14.27;;;9.63;;
62790;SDS011;48830;53.426;10.300;2022-08-25T05:06:55;14.68;;;8.85;;
62790;SDS011;48830;53.426;10.300;2022-08-25T05:09:21;15.75;;;10.13;;
62790;SDS011;48830;53.426;10.300;2022-08-25T05:11:47;15.63;;;9.70;;
62790;SDS011;48830;53.426;10.300;2022-08-25T05:14:13;17.02;;;10.27;;
62790;SDS011;48830;53.426;10.300;2022-08-25T05:16:42;15.88;;;10.75;;
62790;SDS011;48830;53.426;10.300;2022-08-25T05:19:08;13.10;;;10.35;;
62790;SDS011;48830;53.426;10.300;2022-08-25T05:21:33;13.45;;;10.10;;
62790;SDS011;48830;53.426;10.300;2022-08-25T05:23:59;14.50;;;10.10;;
62790;SDS011;48830;53.426;10.300;2022-08-25T05:26:26;15.35;;;10.43;;
62790;SDS011;48830;53.426;10.300;2022-08-25T05:28:54;14.77;;;11.02;;
62790;SDS011;48830;53.426;10.300;2022-08-25T05:31:22;15.32;;;10.43;;
62790;SDS011;48830;53.426;10.300;2022-08-25T05:33:48;14.90;;;10.75;;
62790;SDS011;48830;53.426;10.300;2022-08-25T05:36:15;14.00;;;10.63;;
62790;SDS011;48830;53.426;10.300;2022-08-25T05:38:42;13.40;;;10.52;;
62790;SDS011;48830;53.426;10.300;2022-08-25T05:41:10;14.25;;;10.00;;
62790;SDS011;48830;53.426;10.300;2022-08-25T05:43:38;14.85;;;10.77;;
62790;SDS011;48830;53.426;10.300;2022-08-25T05:46:04;13.65;;;9.63;;
62790;SDS011;48830;53.426;10.300;2022-08-25T05:48:30;11.15;;;8.75;;
62790;SDS011;48830;53.426;10.300;2022-08-25T05:50:57;12.45;;;9.10;;
62790;SDS011;48830;53.426;10.300;2022-08-25T05:53:24;12.73;;;9.40;;
62790;SDS011;48830;53.426;10.300;2022-08-25T05:55:51;14.20;;;9.73;;
62790;SDS011;48830;53.426;10.300;2022-08-25T05:58:18;12.48;;;9.00;;
62790;SDS011;48830;53.426;10.300;2022-08-25T06:00:44;12.55;;;9.77;;
62790;SDS011;48830;53.426;10.300;2022-08-25T06:03:09;12.55;;;10.45;;
62790;SDS011;48830;53.426;10.300;2022-08-25T06:05:35;13.57;;;9.70;;
62790;SDS011;48830;53.426;10.300;2022-08-25T06:08:01;12.82;;;10.15;;
62790;SDS011;48830;53.426;10.300;2022-08-25T06:10:27;13.13;;;9.88;;
62790;SDS011;48830;53.426;10.300;2022-08-25T06:12:52;14.30;;;9.63;;
62790;SDS011;48830;53.426;10.300;2022-08-25T06:15:19;13.73;;;10.13;;
62790;SDS011;48830;53.426;10.300;2022-08-25T06:17:46;15.60;;;10.82;;
62790;SDS011;48830;53.426;10.300;2022-08-25T06:20:18;15.63;;;10.48;;
62790;SDS011;48830;53.426;10.300;2022-08-25T06:22:48;13.48;;;10.07;;
62790;SDS011;48830;53.426;10.300;2022-08-25T06:25:15;14.50;;;10.90;;
62790;SDS011;48830;53.426;10.300;2022-08-25T06:27:44;14.75;;;11.02;;
62790;SDS011;48830;53.426;10.300;2022-08-25T06:30:11;15.32;;;10.05;;
62790;SDS011;48830;53.426;10.300;2022-08-25T06:32:39;14.43;;;9.82;;
62790;SDS011;48830;53.426;10.300;2022-08-25T06:35:07;13.88;;;10.77;;
62790;SDS011;48830;53.426;10.300;2022-08-25T06:37:35;16.27;;;10.48;;
62790;SDS011;48830;53.426;10.300;2022-08-25T06:40:01;13.40;;;10.65;;
62790;SDS011;48830;53.426;10.300;2022-08-25T06:42:29;14.93;;;11.50;;
62790;SDS011;48830;53.426;10.300;2022-08-25T06:44:54;17.23;;;11.93;;
62790;SDS011;48830;53.426;10.300;2022-08-25T06:47:20;15.90;;;11.25;;
62790;SDS011;48830;53.426;10.300;2022-08-25T06:49:45;13.60;;;10.85;;
62790;SDS011;48830;53.426;10.300;2022-08-25T06:52:12;14.82;;;11.07;;
62790;SDS011;48830;53.426;10.300;2022-08-25T06:54:38;15.15;;;11.52;;
62790;SDS011;48830;53.426;10.300;2022-08-25T06:57:04;14.75;;;11.15;;
62790;SDS011;48830;53.426;10.300;2022-08-25T06:59:31;12.90;;;10.43;;
62790;SDS011;48830;53.426;10.300;2022-08-25T07:01:57;14.52;;;11.30;;
62790;SDS011;48830;53.426;10.300;2022-08-25T07:04:23;16.85;;;11.40;;
62790;SDS011;48830;53.426;10.300;2022-08-25T07:06:49;14.30;;;11.30;;
62790;SDS011;48830;53.426;10.300;2022-08-25T07:09:15;12.60;;;11.02;;
62790;SDS011;48830;53.426;10.300;2022-08-25T07:11:41;14.45;;;10.98;;
62790;SDS011;48830;53.426;10.300;2022-08-25T07:14:08;15.63;;;11.20;;
62790;SDS011;48830;53.426;10.300;2022-08-25T07:16:36;15.70;;;11.82;;
62790;SDS011;48830;53.426;10.300;2022-08-25T07:19:02;18.17;;;12.35;;
62790;SDS011;48830;53.426;10.300;2022-08-25T07:21:30;14.45;;;12.27;;
62790;SDS011;48830;53.426;10.300;2022-08-25T07:23:57;15.38;;;12.32;;
62790;SDS011;48830;53.426;10.300;2022-08-25T07:26:25;14.63;;;11.55;;
62790;SDS011;48830;53.426;10.300;2022-08-25T07:28:54;13.65;;;11.63;;
62790;SDS011;48830;53.426;10.300;2022-08-25T07:31:20;14.45;;;11.73;;
62790;SDS011;48830;53.426;10.300;2022-08-25T07:33:45;14.30;;;12.13;;
62790;SDS011;48830;53.426;10.300;2022-08-25T07:36:30;15.20;;;11.60;;
62790;SDS011;48830;53.426;10.300;2022-08-25T07:38:57;15.70;;;12.60;;
62790;SDS011;48830;53.426;10.300;2022-08-25T07:41:24;16.63;;;13.05;;
62790;SDS011;48830;53.426;10.300;2022-08-25T07:43:50;16.73;;;12.48;;
62790;SDS011;48830;53.426;10.300;2022-08-25T07:46:17;16.92;;;12.13;;
62790;SDS011;48830;53.426;10.300;2022-08-25T07:48:43;15.18;;;11.82;;
62790;SDS011;48830;53.426;10.300;2022-08-25T07:51:12;16.67;;;12.05;;
62790;SDS011;48830;53.426;10.300;2022-08-25T07:53:41;16.42;;;12.70;;
62790;SDS011;48830;53.426;10.300;2022-08-25T07:56:11;17.45;;;11.90;;
62790;SDS011;48830;53.426;10.300;2022-08-25T07:58:37;19.33;;;13.93;;
62790;SDS011;48830;53.426;10.300;2022-08-25T08:01:05;16.83;;;12.73;;
62790;SDS011;48830;53.426;10.300;2022-08-25T08:03:31;16.73;;;13.15;;
62790;SDS011;48830;53.426;10.300;2022-08-25T08:05:58;16.52;;;12.75;;
62790;SDS011;48830;53.426;10.300;2022-08-25T08:08:25;17.58;;;13.02;;
62790;SDS011;48830;53.426;10.300;2022-08-25T08:10:51;19.52;;;14.32;;
62790;SDS011;48830;53.426;10.300;2022-08-25T08:13:17;17.65;;;13.82;;
62790;SDS011;48830;53.426;10.300;2022-08-25T08:15:43;18.05;;;13.63;;
62790;SDS011;48830;53.426;10.300;2022-08-25T08:18:09;19.80;;;13.77;;
62790;SDS011;48830;53.426;10.300;2022-08-25T08:20:35;17.15;;;12.75;;
62790;SDS011;48830;53.426;10.300;2022-08-25T08:23:01;17.65;;;13.43;;
62790;SDS011;48830;53.426;10.300;2022-08-25T08:25:27;17.60;;;13.63;;
62790;SDS011;48830;53.426;10.300;2022-08-25T08:27:53;22.38;;;13.70;;
62790;SDS011;48830;53.426;10.300;2022-08-25T08:30:19;15.85;;;12.95;;
62790;SDS011;48830;53.426;10.300;2022-08-25T08:32:45;17.42;;;13.90;;
62790;SDS011;48830;53.426;10.300;2022-08-25T08:35:13;17.35;;;13.25;;
62790;SDS011;48830;53.426;10.300;2022-08-25T08:37:41;17.90;;;13.25;;
62790;SDS011;48830;53.426;10.300;2022-08-25T08:40:07;17.27;;;13.73;;
62790;SDS011;48830;53.426;10.300;2022-08-25T08:45:36;16.52;;;11.98;;
62790;SDS011;48830;53.426;10.300;2022-08-25T08:50:38;13.98;;;11.73;;
62790;SDS011;48830;53.426;10.300;2022-08-25T08:53:19;15.38;;;11.93;;
62790;SDS011;48830;53.426;10.300;2022-08-25T08:55:51;16.40;;;13.07;;
62790;SDS011;48830;53.426;10.300;2022-08-25T08:58:26;19.13;;;12.98;;
62790;SDS011;48830;53.426;10.300;2022-08-25T09:00:58;16.55;;;12.30;;
62790;SDS011;48830;53.426;10.300;2022-08-25T09:06:04;16.65;;;10.35;;
62790;SDS011;48830;53.426;10.300;2022-08-25T09:08:36;14.95;;;11.05;;
62790;SDS011;48830;53.426;10.300;2022-08-25T09:27:42;10.80;;;8.02;;
62790;SDS011;48830;53.426;10.300;2022-08-25T09:32:40;13.50;;;8.63;;
62790;SDS011;48830;53.426;10.300;2022-08-25T09:35:21;14.10;;;7.72;;
62790;SDS011;48830;53.426;10.300;2022-08-25T09:40:33;12.15;;;8.50;;
62790;SDS011;48830;53.426;10.300;2022-08-25T09:43:02;12.15;;;8.75;;
62790;SDS011;48830;53.426;10.300;2022-08-25T09:48:22;11.23;;;7.78;;
62790;SDS011;48830;53.426;10.300;2022-08-25T09:50:59;10.70;;;8.10;;
62790;SDS011;48830;53.426;10.300;2022-08-25T09:53:34;11.57;;;8.95;;
62790;SDS011;48830;53.426;10.300;2022-08-25T09:56:03;12.95;;;8.07;;
62790;SDS011;48830;53.426;10.300;2022-08-25T09:58:31;10.43;;;7.38;;
62790;SDS011;48830;53.426;10.300;2022-08-25T10:01:11;12.18;;;7.85;;
62790;SDS011;48830;53.426;10.300;2022-08-25T10:03:58;12.65;;;7.13;;
62790;SDS011;48830;53.426;10.300;2022-08-25T10:06:29;10.13;;;6.38;;
62790;SDS011;48830;53.426;10.300;2022-08-25T10:09:01;8.93;;;6.20;;
62790;SDS011;48830;53.426;10.300;2022-08-25T10:11:32;9.95;;;6.13;;
62790;SDS011;48830;53.426;10.300;2022-08-25T10:14:12;11.85;;;6.47;;
62790;SDS011;48830;53.426;10.300;2022-08-25T10:16:45;10.60;;;6.07;;
62790;SDS011;48830;53.426;10.300;2022-08-25T10:24:37;14.40;;;6.13;;
62790;SDS011;48830;53.426;10.300;2022-08-25T10:27:13;9.75;;;5.72;;
62790;SDS011;48830;53.426;10.300;2022-08-25T10:32:20;11.27;;;5.97;;
62790;SDS011;48830;53.426;10.300;2022-08-25T10:35:00;10.60;;;5.72;;
62790;SDS011;48830;53.426;10.300;2022-08-25T10:40:06;11.52;;;6.05;;
62790;SDS011;48830;53.426;10.300;2022-08-25T10:46:10;10.75;;;5.50;;
62790;SDS011;48830;53.426;10.300;2022-08-25T10:51:34;11.52;;;6.07;;
62790;SDS011;48830;53.426;10.300;2022-08-25T10:56:37;8.40;;;4.72;;
62790;SDS011;48830;53.426;10.300;2022-08-25T10:59:12;12.10;;;4.65;;
62790;SDS011;48830;53.426;10.300;2022-08-25T11:04:27;9.27;;;4.95;;
62790;SDS011;48830;53.426;10.300;2022-08-25T11:07:16;11.95;;;5.22;;
62790;SDS011;48830;53.426;10.300;2022-08-25T11:09:53;8.27;;;5.50;;
62790;SDS011;48830;53.426;10.300;2022-08-25T11:12:37;9.75;;;4.95;;
62790;SDS011;48830;53.426;10.300;2022-08-25T11:20:16;7.35;;;5.10;;
62790;SDS011;48830;53.426;10.300;2022-08-25T11:22:50;9.38;;;5.15;;
62790;SDS011;48830;53.426;10.300;2022-08-25T11:25:22;10.88;;;4.68;;
62790;SDS011;48830;53.426;10.300;2022-08-25T11:30:22;7.13;;;4.38;;
62790;SDS011;48830;53.426;10.300;2022-08-25T11:32:48;10.57;;;4.85;;
62790;SDS011;48830;53.426;10.300;2022-08-25T11:35:17;7.32;;;4.43;;
62790;SDS011;48830;53.426;10.300;2022-08-25T11:51:56;7.35;;;4.57;;
62790;SDS011;48830;53.426;10.300;2022-08-25T11:54:29;8.75;;;4.00;;
62790;SDS011;48830;53.426;10.300;2022-08-25T11:57:07;7.35;;;4.25;;
62790;SDS011;48830;53.426;10.300;2022-08-25T12:21:50;7.20;;;4.43;;
62790;SDS011;48830;53.426;10.300;2022-08-25T12:24:35;6.63;;;4.38;;
62790;SDS011;48830;53.426;10.300;2022-08-25T12:27:01;6.63;;;4.50;;
62790;SDS011;48830;53.426;10.300;2022-08-25T12:29:44;6.80;;;3.90;;
62790;SDS011;48830;53.426;10.300;2022-08-25T12:37:15;7.25;;;4.07;;
62790;SDS011;48830;53.426;10.300;2022-08-25T12:39:45;7.32;;;3.60;;
62790;SDS011;48830;53.426;10.300;2022-08-25T12:47:51;7.25;;;4.25;;
62790;SDS011;48830;53.426;10.300;2022-08-25T12:53:13;7.65;;;4.20;;
62790;SDS011;48830;53.426;10.300;2022-08-25T12:55:47;8.70;;;4.13;;
62790;SDS011;48830;53.426;10.300;2022-08-25T12:58:16;11.65;;;4.28;;
62790;SDS011;48830;53.426;10.300;2022-08-25T13:03:41;7.97;;;4.32;;
62790;SDS011;48830;53.426;10.300;2022-08-25T13:06:16;9.27;;;4.53;;
62790;SDS011;48830;53.426;10.300;2022-08-25T13:08:53;7.13;;;4.50;;
62790;SDS011;48830;53.426;10.300;2022-08-25T13:14:39;7.88;;;4.05;;
62790;SDS011;48830;53.426;10.300;2022-08-25T13:17:06;7.22;;;4.22;;
62790;SDS011;48830;53.426;10.300;2022-08-25T13:19:33;7.13;;;4.53;;
62790;SDS011;48830;53.426;10.300;2022-08-25T13:21:59;7.07;;;3.90;;
62790;SDS011;48830;53.426;10.300;2022-08-25T13:24:38;7.82;;;4.20;;
62790;SDS011;48830;53.426;10.300;2022-08-25T13:27:07;6.25;;;3.83;;
62790;SDS011;48830;53.426;10.300;2022-08-25T13:29:49;6.95;;;4.28;;
62790;SDS011;48830;53.426;10.300;2022-08-25T13:32:30;6.45;;;4.03;;
62790;SDS011;48830;53.426;10.300;2022-08-25T13:35:13;8.27;;;4.25;;
62790;SDS011;48830;53.426;10.300;2022-08-25T13:37:42;7.47;;;4.22;;
62790;SDS011;48830;53.426;10.300;2022-08-25T13:42:43;7.47;;;4.10;;
62790;SDS011;48830;53.426;10.300;2022-08-25T13:45:16;8.80;;;4.25;;
62790;SDS011;48830;53.426;10.300;2022-08-25T13:47:45;9.45;;;4.30;;
62790;SDS011;48830;53.426;10.300;2022-08-25T13:50:16;8.82;;;3.92;;
62790;SDS011;48830;53.426;10.300;2022-08-25T13:52:59;7.95;;;3.80;;
62790;SDS011;48830;53.426;10.300;2022-08-25T13:58:13;9.00;;;4.13;;
62790;SDS011;48830;53.426;10.300;2022-08-25T14:00:44;7.55;;;4.35;;
62790;SDS011;48830;53.426;10.300;2022-08-25T14:03:28;7.57;;;4.10;;
62790;SDS011;48830;53.426;10.300;2022-08-25T14:08:37;6.55;;;4.03;;
62790;SDS011;48830;53.426;10.300;2022-08-25T14:11:08;7.40;;;4.18;;
62790;SDS011;48830;53.426;10.300;2022-08-25T14:13:37;6.22;;;4.00;;
62790;SDS011;48830;53.426;10.300;2022-08-25T14:16:14;9.02;;;4.05;;
62790;SDS011;48830;53.426;10.300;2022-08-25T14:18:51;8.25;;;4.03;;
62790;SDS011;48830;53.426;10.300;2022-08-25T14:21:23;7.90;;;3.72;;
62790;SDS011;48830;53.426;10.300;2022-08-25T14:23:51;10.18;;;4.03;;
62790;SDS011;48830;53.426;10.300;2022-08-25T14:26:18;6.63;;;3.78;;
62790;SDS011;48830;53.426;10.300;2022-08-25T14:28:44;8.93;;;4.10;;
62790;SDS011;48830;53.426;10.300;2022-08-25T14:31:29;8.55;;;4.22;;
62790;SDS011;48830;53.426;10.300;2022-08-25T14:34:02;6.22;;;3.78;;
62790;SDS011;48830;53.426;10.300;2022-08-25T14:36:32;8.93;;;4.30;;
62790;SDS011;48830;53.426;10.300;2022-08-25T14:38:58;9.45;;;4.55;;
62790;SDS011;48830;53.426;10.300;2022-08-25T14:41:30;8.48;;;4.47;;
62790;SDS011;48830;53.426;10.300;2022-08-25T14:43:58;7.03;;;4.15;;
62790;SDS011;48830;53.426;10.300;2022-08-25T14:46:25;7.53;;;4.30;;
62790;SDS011;48830;53.426;10.300;2022-08-25T14:48:54;7.60;;;4.22;;
62790;SDS011;48830;53.426;10.300;2022-08-25T14:51:23;7.45;;;4.38;;
62790;SDS011;48830;53.426;10.300;2022-08-25T14:53:51;9.70;;;4.38;;
62790;SDS011;48830;53.426;10.300;2022-08-25T14:56:18;8.40;;;4.13;;
62790;SDS011;48830;53.426;10.300;2022-08-25T14:58:43;7.07;;;4.00;;
62790;SDS011;48830;53.426;10.300;2022-08-25T15:01:12;7.78;;;4.30;;
62790;SDS011;48830;53.426;10.300;2022-08-25T15:03:42;7.28;;;4.35;;
62790;SDS011;48830;53.426;10.300;2022-08-25T15:06:11;7.32;;;4.28;;
62790;SDS011;48830;53.426;10.300;2022-08-25T15:08:38;8.05;;;4.35;;
62790;SDS011;48830;53.426;10.300;2022-08-25T15:11:23;6.70;;;4.10;;
62790;SDS011;48830;53.426;10.300;2022-08-25T15:13:49;8.00;;;4.15;;
62790;SDS011;48830;53.426;10.300;2022-08-25T15:16:17;10.25;;;4.47;;
62790;SDS011;48830;53.426;10.300;2022-08-25T15:18:47;8.68;;;4.30;;
62790;SDS011;48830;53.426;10.300;2022-08-25T15:21:13;12.13;;;4.43;;
62790;SDS011;48830;53.426;10.300;2022-08-25T15:23:39;7.35;;;4.13;;
62790;SDS011;48830;53.426;10.300;2022-08-25T15:26:04;10.32;;;4.22;;
62790;SDS011;48830;53.426;10.300;2022-08-25T15:28:34;8.60;;;4.20;;
62790;SDS011;48830;53.426;10.300;2022-08-25T15:31:02;7.00;;;4.00;;
62790;SDS011;48830;53.426;10.300;2022-08-25T15:33:28;9.60;;;4.75;;
62790;SDS011;48830;53.426;10.300;2022-08-25T15:35:54;9.27;;;4.50;;
62790;SDS011;48830;53.426;10.300;2022-08-25T15:38:19;10.90;;;4.25;;
62790;SDS011;48830;53.426;10.300;2022-08-25T15:40:45;8.77;;;3.92;;
62790;SDS011;48830;53.426;10.300;2022-08-25T15:43:10;8.60;;;4.18;;
62790;SDS011;48830;53.426;10.300;2022-08-25T15:45:36;10.25;;;4.32;;
62790;SDS011;48830;53.426;10.300;2022-08-25T15:48:02;11.23;;;4.40;;
62790;SDS011;48830;53.426;10.300;2022-08-25T15:50:28;7.30;;;4.00;;
62790;SDS011;48830;53.426;10.300;2022-08-25T15:52:54;7.10;;;4.05;;
62790;SDS011;48830;53.426;10.300;2022-08-25T15:55:19;7.30;;;4.28;;
62790;SDS011;48830;53.426;10.300;2022-08-25T15:57:45;9.02;;;5.22;;
62790;SDS011;48830;53.426;10.300;2022-08-25T16:00:12;8.93;;;4.38;;
62790;SDS011;48830;53.426;10.300;2022-08-25T16:02:38;9.93;;;4.50;;
62790;SDS011;48830;53.426;10.300;2022-08-25T16:05:04;11.02;;;4.40;;
62790;SDS011;48830;53.426;10.300;2022-08-25T16:07:31;10.38;;;4.97;;
62790;SDS011;48830;53.426;10.300;2022-08-25T16:09:57;9.13;;;4.50;;
62790;SDS011;48830;53.426;10.300;2022-08-25T16:12:23;7.65;;;4.20;;
62790;SDS011;48830;53.426;10.300;2022-08-25T16:14:49;9.63;;;4.70;;
62790;SDS011;48830;53.426;10.300;2022-08-25T16:17:17;8.98;;;5.00;;
62790;SDS011;48830;53.426;10.300;2022-08-25T16:19:43;10.50;;;4.70;;
62790;SDS011;48830;53.426;10.300;2022-08-25T16:22:09;9.45;;;4.20;;
62790;SDS011;48830;53.426;10.300;2022-08-25T16:24:37;7.47;;;4.05;;
62790;SDS011;48830;53.426;10.300;2022-08-25T16:27:12;12.10;;;4.70;;
62790;SDS011;48830;53.426;10.300;2022-08-25T16:29:39;9.10;;;4.30;;
62790;SDS011;48830;53.426;10.300;2022-08-25T16:32:08;9.18;;;4.40;;
62790;SDS011;48830;53.426;10.300;2022-08-25T16:34:35;8.85;;;4.45;;
62790;SDS011;48830;53.426;10.300;2022-08-25T16:37:01;7.57;;;4.38;;
62790;SDS011;48830;53.426;10.300;2022-08-25T16:39:27;10.52;;;4.47;;
62790;SDS011;48830;53.426;10.300;2022-08-25T16:41:53;11.90;;;4.60;;